Time;durP1;ratioP1;P1;durP2;ratioP2;P2;SDS_P1;SDS_P2;PMS_P1;PMS_P2;Temp;Humidity;BMP_temperature;BMP_pressure;BME280_temperature;BME280_humidity;BME280_pressure;Samples;Min_cycle;Max_cycle;Signal;HPM_P1;HPM_P2
2023/06/14 00:02:11;;;;;;;3.53;2.17;;;15.70;91.60;;;;;;4962094;28;20244;-62
2023/06/14 00:04:38;;;;;;;3.17;2.20;;;15.70;91.80;;;;;;4962139;28;20197;-62
2023/06/14 00:07:08;;;;;;;5.17;2.10;;;15.70;91.90;;;;;;4962444;28;20205;-62
2023/06/14 00:09:33;;;;;;;3.43;3.00;;;15.70;92.30;;;;;;4961820;28;20202;-62
2023/06/14 00:11:59;;;;;;;3.50;2.43;;;15.70;92.60;;;;;;4960709;28;20571;-62
2023/06/14 00:14:24;;;;;;;4.83;2.50;;;15.60;93.20;;;;;;4962067;28;20197;-62
2023/06/14 00:16:52;;;;;;;4.13;2.20;;;15.80;92.80;;;;;;4961676;28;20612;-62
2023/06/14 00:19:17;;;;;;;2.30;2.10;;;15.70;93.00;;;;;;4961624;28;20199;-62
2023/06/14 00:21:43;;;;;;;2.40;2.20;;;15.80;93.50;;;;;;4956389;28;20210;-62
2023/06/14 00:24:09;;;;;;;2.30;1.93;;;15.80;93.60;;;;;;4958999;28;20253;-62
2023/06/14 00:26:34;;;;;;;2.63;2.43;;;15.70;94.00;;;;;;4957155;28;20293;-73
2023/06/14 00:29:00;;;;;;;3.30;2.43;;;15.60;94.30;;;;;;4961861;28;20193;-63
2023/06/14 00:31:25;;;;;;;6.03;2.03;;;15.60;94.70;;;;;;4961674;28;20267;-63
2023/06/14 00:33:51;;;;;;;2.93;2.73;;;15.60;95.30;;;;;;4955062;28;20723;-64
2023/06/14 00:36:17;;;;;;;2.83;2.63;;;15.60;95.40;;;;;;4959948;28;20201;-62
2023/06/14 00:38:42;;;;;;;2.53;2.27;;;15.60;95.70;;;;;;4957804;28;20304;-62
2023/06/14 00:41:08;;;;;;;2.90;2.23;;;15.60;96.20;;;;;;4960720;28;20657;-62
2023/06/14 00:43:34;;;;;;;6.70;2.33;;;15.50;96.30;;;;;;4956064;28;20929;-62
2023/06/14 00:46:00;;;;;;;3.73;2.73;;;15.30;97.20;;;;;;4959821;28;20262;-62
2023/06/14 00:48:26;;;;;;;4.33;2.60;;;15.30;97.50;;;;;;4956674;28;20199;-61
2023/06/14 00:50:52;;;;;;;3.40;3.10;;;15.40;98.00;;;;;;4961271;28;20205;-62
2023/06/14 00:53:20;;;;;;;2.57;2.17;;;15.40;98.10;;;;;;4961375;28;20205;-62
2023/06/14 00:55:46;;;;;;;2.80;2.60;;;15.30;98.60;;;;;;4961142;28;20292;-62
2023/06/14 00:58:12;;;;;;;2.50;2.30;;;15.10;99.60;;;;;;4961213;28;20326;-62
2023/06/14 01:00:40;;;;;;;4.33;2.60;;;15.10;99.90;;;;;;4955728;28;20684;-62
2023/06/14 01:03:07;;;;;;;3.10;2.80;;;15.20;99.90;;;;;;4960878;28;20224;-63
2023/06/14 01:05:33;;;;;;;3.60;3.13;;;15.10;99.90;;;;;;4958889;28;20213;-62
2023/06/14 01:08:21;;;;;;;4.57;2.80;;;15.10;99.90;;;;;;4960379;28;20217;-63
2023/06/14 01:11:07;;;;;;;3.30;2.97;;;15.20;99.90;;;;;;4958770;28;20743;-63
2023/06/14 01:13:36;;;;;;;9.87;2.97;;;15.10;99.90;;;;;;4960786;28;20209;-63
2023/06/14 01:16:03;;;;;;;4.83;3.20;;;15.00;99.90;;;;;;4961058;28;20678;-62
2023/06/14 01:18:29;;;;;;;6.27;3.33;;;15.00;99.90;;;;;;4960797;28;20205;-62
2023/06/14 01:20:55;;;;;;;5.33;3.47;;;15.10;99.90;;;;;;4959296;28;20217;-63
2023/06/14 01:23:22;;;;;;;3.90;3.60;;;15.20;99.90;;;;;;4960439;28;20280;-63
2023/06/14 01:25:52;;;;;;;4.37;3.00;;;15.20;99.90;;;;;;4960543;28;20659;-63
2023/06/14 01:28:20;;;;;;;3.27;2.77;;;15.10;99.90;;;;;;4960542;28;20190;-63
2023/06/14 01:30:49;;;;;;;3.30;3.00;;;15.10;99.90;;;;;;4956989;28;20919;-62
2023/06/14 01:33:20;;;;;;;3.47;3.17;;;14.90;99.90;;;;;;4960156;28;20205;-63
2023/06/14 01:35:52;;;;;;;3.97;2.60;;;14.80;99.90;;;;;;4960443;28;20217;-63
2023/06/14 01:38:20;;;;;;;3.70;3.10;;;14.90;99.90;;;;;;4960519;28;20211;-65
2023/06/14 01:40:47;;;;;;;3.93;3.50;;;14.90;99.90;;;;;;4960644;28;20569;-63
2023/06/14 01:43:14;;;;;;;4.13;3.73;;;14.90;99.90;;;;;;4954211;28;20216;-63
2023/06/14 01:45:42;;;;;;;5.10;3.50;;;14.90;99.90;;;;;;4960561;28;20205;-63
2023/06/14 01:48:08;;;;;;;4.90;3.90;;;14.70;99.90;;;;;;4960251;28;20567;-63
2023/06/14 01:50:34;;;;;;;3.37;3.07;;;14.80;99.90;;;;;;4960073;28;20226;-63
2023/06/14 01:53:00;;;;;;;5.00;3.60;;;14.80;99.90;;;;;;4960358;28;20297;-62
2023/06/14 01:55:25;;;;;;;4.83;3.57;;;14.80;99.90;;;;;;4940617;28;20229;-62
2023/06/14 01:57:54;;;;;;;4.07;3.20;;;14.80;99.90;;;;;;4955657;28;20261;-62
2023/06/14 02:00:21;;;;;;;3.10;2.80;;;14.80;99.90;;;;;;4955434;28;20229;-62
2023/06/14 02:02:47;;;;;;;5.53;3.67;;;14.60;99.90;;;;;;4959170;28;20217;-62
2023/06/14 02:05:12;;;;;;;4.07;3.00;;;14.70;99.90;;;;;;4957484;28;20194;-62
2023/06/14 02:07:38;;;;;;;3.63;3.33;;;14.50;99.90;;;;;;4955466;28;20665;-62
2023/06/14 02:10:04;;;;;;;3.37;3.00;;;14.50;99.90;;;;;;4954302;28;20203;-63
2023/06/14 02:12:30;;;;;;;3.43;3.13;;;14.40;99.90;;;;;;4958831;28;20217;-62
2023/06/14 02:14:56;;;;;;;3.97;3.10;;;14.30;99.90;;;;;;4959890;28;20687;-64
2023/06/14 02:17:22;;;;;;;3.50;3.20;;;14.30;99.90;;;;;;4960021;28;20228;-62
2023/06/14 02:19:48;;;;;;;3.90;3.60;;;14.20;99.90;;;;;;4957383;28;20220;-63
2023/06/14 02:22:14;;;;;;;3.70;3.40;;;14.30;99.90;;;;;;4955275;28;20214;-62
2023/06/14 02:24:41;;;;;;;3.40;3.10;;;14.20;99.90;;;;;;4958968;28;20609;-63
2023/06/14 02:27:08;;;;;;;3.80;3.37;;;14.00;99.90;;;;;;4955420;28;20202;-63
2023/06/14 02:29:34;;;;;;;5.10;3.87;;;13.90;99.90;;;;;;4954754;28;20328;-62
2023/06/14 02:31:59;;;;;;;4.93;3.00;;;13.90;99.90;;;;;;4952897;28;20209;-64
2023/06/14 02:34:25;;;;;;;5.80;3.90;;;14.00;99.90;;;;;;4953916;28;20574;-63
2023/06/14 02:36:52;;;;;;;4.20;3.80;;;14.10;99.90;;;;;;4959860;28;20205;-63
2023/06/14 02:39:20;;;;;;;8.67;3.90;;;14.20;99.90;;;;;;4958747;28;20205;-63
2023/06/14 02:41:46;;;;;;;7.63;3.67;;;14.30;99.90;;;;;;4958048;28;20659;-64
2023/06/14 02:44:13;;;;;;;4.70;3.77;;;14.10;99.90;;;;;;4957319;28;20193;-63
2023/06/14 02:46:39;;;;;;;4.13;3.83;;;13.90;99.90;;;;;;4959111;28;20201;-64
2023/06/14 02:49:04;;;;;;;5.37;4.10;;;13.80;99.90;;;;;;4959267;28;20209;-63
2023/06/14 02:51:30;;;;;;;6.93;3.83;;;13.80;99.90;;;;;;4959283;28;20217;-63
2023/06/14 02:53:56;;;;;;;4.73;4.23;;;13.70;99.90;;;;;;4944806;28;20257;-63
2023/06/14 02:56:22;;;;;;;7.27;4.40;;;13.70;99.90;;;;;;4940955;28;20685;-63
2023/06/14 02:58:48;;;;;;;4.63;4.10;;;13.80;99.90;;;;;;4949813;28;20224;-63
2023/06/14 03:01:14;;;;;;;7.70;4.53;;;13.80;99.90;;;;;;4953783;28;20201;-63
2023/06/14 03:03:40;;;;;;;5.80;4.40;;;13.80;99.90;;;;;;4950086;28;20246;-63
2023/06/14 03:06:05;;;;;;;5.23;4.17;;;13.70;99.90;;;;;;4950051;28;21157;-63
2023/06/14 03:08:38;;;;;;;6.23;4.47;;;13.60;99.90;;;;;;4947249;28;20220;-63
2023/06/14 03:11:04;;;;;;;4.80;4.40;;;13.70;99.90;;;;;;4951369;28;20197;-62
2023/06/14 03:13:32;;;;;;;7.13;4.80;;;13.70;99.90;;;;;;4949504;28;20295;-62
2023/06/14 03:15:57;;;;;;;9.13;4.87;;;13.70;99.90;;;;;;4950564;28;20261;-62
2023/06/14 03:18:25;;;;;;;6.13;5.20;;;13.80;99.90;;;;;;4947239;28;20194;-62
2023/06/14 03:20:51;;;;;;;9.67;5.47;;;13.90;99.90;;;;;;4949580;28;20214;-62
2023/06/14 03:23:17;;;;;;;7.30;5.57;;;13.90;99.90;;;;;;4949550;28;20264;-63
2023/06/14 03:25:43;;;;;;;8.87;6.17;;;14.00;99.90;;;;;;4949672;28;20613;-63
2023/06/14 03:28:08;;;;;;;8.53;6.70;;;14.00;99.90;;;;;;4949534;28;20284;-62
2023/06/14 03:30:34;;;;;;;5.50;4.90;;;14.00;99.90;;;;;;4951351;28;20207;-63
2023/06/14 03:33:03;;;;;;;7.53;4.87;;;14.00;99.90;;;;;;4952243;28;20235;-63
2023/06/14 03:35:28;;;;;;;6.60;5.80;;;13.90;99.90;;;;;;4952750;28;20264;-62
2023/06/14 03:37:54;;;;;;;5.70;4.83;;;13.90;99.90;;;;;;4956366;28;20198;-62
2023/06/14 03:40:21;;;;;;;5.57;5.07;;;13.90;99.90;;;;;;4954634;28;21006;-62
2023/06/14 03:42:46;;;;;;;6.63;5.20;;;14.00;99.90;;;;;;4944346;28;20510;-63
2023/06/14 03:45:12;;;;;;;6.10;5.00;;;14.00;99.90;;;;;;4953396;28;20194;-63
2023/06/14 03:47:38;;;;;;;8.00;5.07;;;14.20;99.90;;;;;;4952926;28;20218;-63
2023/06/14 03:50:04;;;;;;;5.63;4.97;;;14.20;99.90;;;;;;4954653;28;20195;-63
2023/06/14 03:52:31;;;;;;;5.23;4.73;;;14.20;99.90;;;;;;4952447;28;20229;-63
2023/06/14 03:54:56;;;;;;;5.37;4.87;;;14.20;99.90;;;;;;4951172;28;20233;-63
2023/06/14 03:57:23;;;;;;;9.40;5.17;;;14.20;99.90;;;;;;4952212;28;20889;-63
2023/06/14 03:59:48;;;;;;;5.93;4.80;;;14.10;99.90;;;;;;4951414;28;20202;-63
2023/06/14 04:02:15;;;;;;;7.53;5.43;;;14.20;99.90;;;;;;4952213;28;20308;-63
2023/06/14 04:04:45;;;;;;;6.83;4.47;;;14.20;99.90;;;;;;4949753;28;20668;-62
2023/06/14 04:07:11;;;;;;;7.53;4.60;;;14.10;99.90;;;;;;4952759;28;20198;-63
2023/06/14 04:09:37;;;;;;;8.77;5.80;;;14.20;99.90;;;;;;4952674;28;20255;-62
2023/06/14 04:12:03;;;;;;;6.60;4.90;;;14.10;99.90;;;;;;4952871;28;20612;-63
2023/06/14 04:14:30;;;;;;;5.60;5.03;;;14.20;99.90;;;;;;4952337;28;20264;-63
2023/06/14 04:16:56;;;;;;;6.70;4.77;;;14.20;99.90;;;;;;4950775;28;20285;-67
2023/06/14 04:19:21;;;;;;;5.50;4.93;;;14.20;99.90;;;;;;4951715;28;20281;-62
2023/06/14 04:21:46;;;;;;;7.13;5.33;;;14.20;99.90;;;;;;4952169;28;20225;-63
2023/06/14 04:24:13;;;;;;;5.40;4.90;;;14.20;99.90;;;;;;4951846;28;20260;-63
2023/06/14 04:26:44;;;;;;;4.93;4.43;;;14.20;99.90;;;;;;4958109;28;20201;-63
2023/06/14 04:29:14;;;;;;;8.77;5.37;;;14.30;99.90;;;;;;4949801;28;20205;-62
2023/06/14 04:31:40;;;;;;;6.10;5.33;;;14.30;99.90;;;;;;4951550;28;20228;-62
2023/06/14 04:34:07;;;;;;;7.77;5.80;;;14.20;99.90;;;;;;4949686;28;20229;-63
2023/06/14 04:36:38;;;;;;;7.43;5.67;;;14.40;99.90;;;;;;4952079;28;20232;-63
2023/06/14 04:39:04;;;;;;;9.87;5.57;;;14.60;99.90;;;;;;4953728;28;20696;-62
2023/06/14 04:41:30;;;;;;;6.67;5.97;;;14.70;99.90;;;;;;4950462;28;20225;-61
2023/06/14 04:44:01;;;;;;;10.77;7.33;;;14.60;99.90;;;;;;4951476;28;20253;-61
2023/06/14 04:46:28;;;;;;;13.57;7.70;;;14.60;99.90;;;;;;4951520;28;20265;-62
2023/06/14 04:48:54;;;;;;;16.40;7.40;;;14.50;99.90;;;;;;4949999;28;20202;-64
2023/06/14 04:51:22;;;;;;;11.67;7.97;;;14.60;99.90;;;;;;4955255;28;20410;-63
2023/06/14 04:53:49;;;;;;;12.93;8.37;;;14.80;99.90;;;;;;4949283;28;20250;-62
2023/06/14 04:56:15;;;;;;;14.37;9.00;;;14.80;99.90;;;;;;4952813;28;20268;-62
2023/06/14 04:58:40;;;;;;;14.90;8.50;;;14.90;99.90;;;;;;4950054;28;20638;-64
2023/06/14 05:01:09;;;;;;;11.50;7.80;;;15.00;99.90;;;;;;4950868;28;20201;-62
2023/06/14 05:03:34;;;;;;;12.57;7.77;;;15.00;99.90;;;;;;4951286;28;20285;-62
2023/06/14 05:06:00;;;;;;;8.83;7.47;;;15.00;99.90;;;;;;4951390;28;20218;-62
2023/06/14 05:08:26;;;;;;;12.50;7.80;;;15.00;99.90;;;;;;4951395;28;20207;-62
2023/06/14 05:10:52;;;;;;;7.93;6.20;;;15.00;99.90;;;;;;4950961;28;20218;-63
2023/06/14 05:13:18;;;;;;;8.77;6.27;;;15.20;99.90;;;;;;4949612;28;20237;-63
2023/06/14 05:15:44;;;;;;;6.57;5.97;;;15.30;99.90;;;;;;4951297;28;20236;-62
2023/06/14 05:18:09;;;;;;;9.10;6.57;;;15.30;99.90;;;;;;4951611;28;20681;-62
2023/06/14 05:20:36;;;;;;;5.77;5.37;;;15.30;99.90;;;;;;4951111;28;20201;-62
2023/06/14 05:23:02;;;;;;;6.80;6.10;;;15.30;99.90;;;;;;4951299;28;20677;-62
2023/06/14 05:25:28;;;;;;;6.97;4.90;;;15.20;99.90;;;;;;4952563;28;20576;-62
2023/06/14 05:27:53;;;;;;;6.80;4.63;;;15.40;99.90;;;;;;4951914;28;20257;-63
2023/06/14 05:30:19;;;;;;;6.23;5.63;;;15.30;99.90;;;;;;4951542;28;20218;-64
2023/06/14 05:32:45;;;;;;;6.70;6.10;;;15.30;99.90;;;;;;4948934;28;20534;-62
2023/06/14 05:35:10;;;;;;;6.07;4.97;;;15.40;99.90;;;;;;4950357;28;20301;-61
2023/06/14 05:37:36;;;;;;;11.17;6.33;;;15.50;99.90;;;;;;4948030;28;20677;-63
2023/06/14 05:40:05;;;;;;;7.83;5.83;;;15.50;99.90;;;;;;4951446;28;20242;-61
2023/06/14 05:42:30;;;;;;;11.60;5.37;;;15.60;99.90;;;;;;4955336;28;20229;-61
2023/06/14 05:44:56;;;;;;;12.90;5.17;;;15.60;99.90;;;;;;4960463;28;20208;-61
2023/06/14 05:47:21;;;;;;;11.97;5.53;;;15.60;99.90;;;;;;4960141;28;20560;-63
2023/06/14 05:49:47;;;;;;;8.10;5.57;;;15.70;99.90;;;;;;4959868;28;20280;-61
2023/06/14 05:52:12;;;;;;;6.37;4.73;;;15.70;99.90;;;;;;4953219;28;20201;-61
2023/06/14 05:54:38;;;;;;;6.37;5.77;;;15.80;99.90;;;;;;4955211;28;20214;-62
2023/06/14 05:57:06;;;;;;;6.40;5.70;;;15.80;99.90;;;;;;4958638;28;20213;-62
2023/06/14 05:59:31;;;;;;;5.77;5.27;;;15.80;99.90;;;;;;4955037;28;20205;-62
2023/06/14 06:01:57;;;;;;;10.33;5.33;;;15.80;99.90;;;;;;4959919;28;20276;-62
2023/06/14 06:04:23;;;;;;;5.70;5.20;;;15.90;99.90;;;;;;4957974;28;20198;-62
2023/06/14 06:06:48;;;;;;;6.70;5.03;;;15.90;99.90;;;;;;4959631;28;20210;-62
2023/06/14 06:09:14;;;;;;;7.60;6.33;;;16.10;99.90;;;;;;4960269;28;20767;-63
2023/06/14 06:11:40;;;;;;;5.73;5.23;;;16.10;99.90;;;;;;4959831;28;20204;-63
2023/06/14 06:14:06;;;;;;;5.43;4.90;;;16.00;99.90;;;;;;4959827;28;20233;-62
2023/06/14 06:16:31;;;;;;;6.43;5.83;;;16.10;99.90;;;;;;4957749;28;20256;-64
2023/06/14 06:18:57;;;;;;;7.13;5.50;;;16.10;99.90;;;;;;4959832;28;20206;-63
2023/06/14 06:21:22;;;;;;;7.00;5.10;;;16.00;99.90;;;;;;4959171;28;20210;-63
2023/06/14 06:23:48;;;;;;;6.20;5.23;;;16.10;99.90;;;;;;4954061;28;20234;-63
2023/06/14 06:26:13;;;;;;;6.10;5.47;;;16.10;99.90;;;;;;4959888;28;20660;-63
2023/06/14 06:28:40;;;;;;;6.43;5.37;;;16.10;99.90;;;;;;4959102;28;20248;-63
2023/06/14 06:31:05;;;;;;;5.93;5.33;;;16.10;99.90;;;;;;4958845;28;20514;-63
2023/06/14 06:33:31;;;;;;;8.13;6.37;;;16.10;99.90;;;;;;4959139;28;20206;-63
2023/06/14 06:35:56;;;;;;;6.07;5.27;;;16.10;99.90;;;;;;4959598;28;20198;-63
2023/06/14 06:38:22;;;;;;;8.93;5.53;;;16.30;99.90;;;;;;4959602;28;20228;-63
2023/06/14 06:40:47;;;;;;;10.23;4.93;;;16.30;99.90;;;;;;4959146;28;20198;-63
2023/06/14 06:43:13;;;;;;;6.83;4.57;;;16.20;99.90;;;;;;4959372;28;20209;-63
2023/06/14 06:45:39;;;;;;;11.17;6.57;;;16.10;99.90;;;;;;4957097;28;20590;-63
2023/06/14 06:48:05;;;;;;;6.90;5.47;;;16.10;99.90;;;;;;4953978;28;20202;-63
2023/06/14 06:50:31;;;;;;;7.10;4.93;;;16.20;99.90;;;;;;4958965;28;20256;-63
2023/06/14 06:52:56;;;;;;;8.03;5.70;;;16.20;99.90;;;;;;4959201;28;20672;-66
2023/06/14 06:55:22;;;;;;;5.90;5.03;;;16.30;99.90;;;;;;4959447;28;20214;-63
2023/06/14 06:57:49;;;;;;;6.30;4.90;;;16.60;99.90;;;;;;4956835;28;20205;-63
2023/06/14 07:00:15;;;;;;;7.83;5.23;;;16.60;99.90;;;;;;4954633;28;20433;-63
2023/06/14 07:02:40;;;;;;;8.63;5.23;;;16.60;99.90;;;;;;4949202;28;20268;-62
2023/06/14 07:05:07;;;;;;;5.97;5.47;;;16.70;99.90;;;;;;4943671;28;20202;-63
2023/06/14 07:07:32;;;;;;;5.37;4.47;;;16.80;99.90;;;;;;4941716;28;20219;-63
2023/06/14 07:09:58;;;;;;;4.97;4.57;;;16.70;99.90;;;;;;4944642;28;20293;-62
2023/06/14 07:12:24;;;;;;;7.90;5.27;;;16.80;99.90;;;;;;4942291;28;20194;-63
2023/06/14 07:14:49;;;;;;;5.30;4.80;;;16.90;99.90;;;;;;4944226;28;20212;-63
2023/06/14 07:17:15;;;;;;;6.87;5.47;;;17.00;99.90;;;;;;4943381;28;20199;-63
2023/06/14 07:19:40;;;;;;;6.27;5.30;;;17.10;99.90;;;;;;4943469;28;20190;-64
2023/06/14 07:22:06;;;;;;;5.87;5.27;;;17.30;99.90;;;;;;4941591;28;20226;-63
2023/06/14 07:24:31;;;;;;;7.07;4.97;;;17.10;99.90;;;;;;4943170;28;20235;-63
2023/06/14 07:26:57;;;;;;;6.57;4.97;;;17.00;99.90;;;;;;4944437;28;20322;-65
2023/06/14 07:29:22;;;;;;;5.83;4.37;;;17.20;99.90;;;;;;4947563;28;20208;-63
2023/06/14 07:31:48;;;;;;;6.37;5.03;;;17.50;99.90;;;;;;4942117;28;20190;-63
2023/06/14 07:34:13;;;;;;;7.73;4.80;;;17.40;99.90;;;;;;4940979;28;20313;-63
2023/06/14 07:36:39;;;;;;;5.40;4.67;;;17.30;99.90;;;;;;4939170;28;20199;-64
2023/06/14 07:39:06;;;;;;;10.33;4.83;;;17.40;99.90;;;;;;4942983;28;20535;-64
2023/06/14 07:41:32;;;;;;;4.83;4.37;;;17.50;99.90;;;;;;4940203;28;20207;-66
2023/06/14 07:43:58;;;;;;;6.63;4.97;;;17.60;99.90;;;;;;4942342;28;20298;-66
2023/06/14 07:46:23;;;;;;;4.97;4.40;;;17.60;99.90;;;;;;4943423;28;20601;-63
2023/06/14 07:48:49;;;;;;;7.07;4.50;;;17.70;99.90;;;;;;4941135;28;20725;-64
2023/06/14 07:51:14;;;;;;;6.40;4.90;;;17.80;99.90;;;;;;4943338;28;20259;-64
2023/06/14 07:53:40;;;;;;;5.87;4.50;;;17.90;99.90;;;;;;4940851;28;20212;-73
2023/06/14 07:56:06;;;;;;;8.23;4.40;;;18.20;99.90;;;;;;4949618;28;20202;-72
2023/06/14 07:58:31;;;;;;;5.40;3.97;;;18.30;99.90;;;;;;4949068;28;20273;-73
2023/06/14 08:00:57;;;;;;;6.77;4.70;;;18.40;99.90;;;;;;4947090;28;20221;-76
2023/06/14 08:03:23;;;;;;;7.30;4.23;;;18.50;99.90;;;;;;4948263;28;20559;-74
2023/06/14 08:05:49;;;;;;;5.20;4.43;;;18.60;99.90;;;;;;4947240;28;20648;-73
2023/06/14 08:08:15;;;;;;;4.50;3.97;;;18.60;99.90;;;;;;4948585;28;20229;-73
2023/06/14 08:10:40;;;;;;;5.63;4.17;;;18.60;99.90;;;;;;4931174;29;20197;-76
2023/06/14 08:13:05;;;;;;;6.23;3.80;;;18.60;99.90;;;;;;4946752;28;20290;-74
2023/06/14 08:15:31;;;;;;;10.07;5.50;;;18.60;99.90;;;;;;4953148;28;20274;-73
2023/06/14 08:17:59;;;;;;;7.07;5.80;;;18.70;99.90;;;;;;4949124;28;20242;-73
2023/06/14 08:20:25;;;;;;;3.83;3.53;;;19.00;99.90;;;;;;4952206;28;20961;-75
2023/06/14 08:22:55;;;;;;;5.63;4.23;;;19.20;99.90;;;;;;4936614;28;20243;-72
2023/06/14 08:25:20;;;;;;;12.77;6.30;;;19.20;99.90;;;;;;4946586;28;20319;-74
2023/06/14 08:27:46;;;;;;;5.40;4.20;;;19.30;99.90;;;;;;4947875;28;20288;-73
2023/06/14 08:30:12;;;;;;;7.27;3.80;;;19.30;99.90;;;;;;4946095;28;20196;-71
2023/06/14 08:32:38;;;;;;;6.53;4.23;;;19.40;99.90;;;;;;4946544;28;20919;-71
2023/06/14 08:35:06;;;;;;;4.73;3.63;;;19.30;99.90;;;;;;4951548;28;20213;-72
2023/06/14 08:37:33;;;;;;;5.30;3.70;;;19.50;99.90;;;;;;4949673;28;20210;-74
2023/06/14 08:39:58;;;;;;;4.53;3.90;;;19.60;99.90;;;;;;4951693;28;20290;-72
2023/06/14 08:42:24;;;;;;;5.33;2.97;;;19.90;99.40;;;;;;4945509;28;20308;-73
2023/06/14 08:44:50;;;;;;;5.33;4.33;;;20.10;98.80;;;;;;4930520;28;20260;-73
2023/06/14 08:47:17;;;;;;;4.10;3.70;;;20.20;98.60;;;;;;4944478;28;20227;-73
2023/06/14 08:49:47;;;;;;;4.97;3.60;;;20.20;98.50;;;;;;4946966;28;20292;-73
2023/06/14 08:52:18;;;;;;;7.80;4.10;;;20.20;98.70;;;;;;4944263;28;20284;-73
2023/06/14 08:54:44;;;;;;;5.00;3.80;;;20.30;98.20;;;;;;4947284;28;20201;-72
2023/06/14 08:57:15;;;;;;;9.33;4.97;;;20.10;98.10;;;;;;4950399;28;20233;-71
2023/06/14 08:59:46;;;;;;;7.97;3.90;;;20.30;98.60;;;;;;4949006;28;20218;-72
2023/06/14 09:02:14;;;;;;;12.20;4.63;;;20.20;98.30;;;;;;4949798;28;20232;-75
2023/06/14 09:04:39;;;;;;;6.13;3.63;;;20.20;97.90;;;;;;4955832;28;20205;-74
2023/06/14 09:07:06;;;;;;;3.70;3.40;;;20.20;97.90;;;;;;4957994;28;20204;-75
2023/06/14 09:09:32;;;;;;;5.60;3.50;;;20.30;97.80;;;;;;4947595;28;20201;-74
2023/06/14 09:11:57;;;;;;;4.90;3.33;;;20.50;97.50;;;;;;4957353;28;20595;-74
2023/06/14 09:14:24;;;;;;;3.37;3.03;;;20.70;97.60;;;;;;4958478;28;20208;-74
2023/06/14 09:16:54;;;;;;;4.53;2.87;;;20.90;96.30;;;;;;4949771;28;20233;-73
2023/06/14 09:19:24;;;;;;;4.00;2.97;;;21.00;96.30;;;;;;4958602;28;20683;-72
2023/06/14 09:21:49;;;;;;;4.57;3.90;;;20.90;95.90;;;;;;4960381;28;20213;-72
2023/06/14 09:24:15;;;;;;;4.20;3.80;;;21.00;95.70;;;;;;4943090;28;20672;-73
2023/06/14 09:26:40;;;;;;;5.00;3.40;;;21.00;95.70;;;;;;4960383;28;20205;-72
2023/06/14 09:29:06;;;;;;;5.53;3.77;;;20.90;95.80;;;;;;4960002;28;20735;-72
2023/06/14 09:31:32;;;;;;;7.27;3.40;;;20.80;96.30;;;;;;4958462;28;20201;-73
2023/06/14 09:34:01;;;;;;;7.10;3.50;;;21.00;96.10;;;;;;4960611;28;20236;-72
2023/06/14 09:36:27;;;;;;;6.20;3.57;;;21.20;95.30;;;;;;4953271;28;20599;-71
2023/06/14 09:38:57;;;;;;;7.77;4.60;;;21.30;95.00;;;;;;4960356;28;20186;-71
2023/06/14 09:41:37;;;;;;;6.13;3.83;;;21.20;94.90;;;;;;4947628;28;20233;-73
2023/06/14 09:44:04;;;;;;;3.57;3.27;;;21.20;94.70;;;;;;4947008;28;20243;-72
2023/06/14 09:46:31;;;;;;;6.10;3.73;;;21.30;94.90;;;;;;4959162;28;20232;-73
2023/06/14 09:48:57;;;;;;;5.97;3.80;;;21.10;94.80;;;;;;4960287;28;20206;-70
2023/06/14 09:51:23;;;;;;;5.60;3.87;;;21.20;95.00;;;;;;4942415;28;20195;-71
2023/06/14 09:53:49;;;;;;;3.83;3.53;;;21.20;94.40;;;;;;4947542;28;20209;-71
2023/06/14 09:56:27;;;;;;;8.10;3.90;;;21.30;94.40;;;;;;4949682;28;20721;-71
2023/06/14 09:58:56;;;;;;;8.23;4.30;;;21.30;93.70;;;;;;4943055;28;20303;-76
2023/06/14 10:01:24;;;;;;;5.57;4.07;;;21.00;94.50;;;;;;4950342;28;20258;-75
2023/06/14 10:04:13;;;;;;;6.50;3.33;;;21.30;94.20;;;;;;4931289;28;20553;-75
2023/06/14 10:06:45;;;;;;;3.60;3.30;;;21.50;94.10;;;;;;4947069;28;20669;-72
2023/06/14 10:09:11;;;;;;;4.43;3.23;;;21.40;93.90;;;;;;4950252;28;20247;-74
2023/06/14 10:11:43;;;;;;;4.40;4.00;;;21.50;93.60;;;;;;4950580;28;20224;-73
2023/06/14 10:14:11;;;;;;;4.30;3.70;;;21.60;93.60;;;;;;4947884;28;20702;-73
2023/06/14 10:16:56;;;;;;;8.47;3.80;;;21.50;93.60;;;;;;4950237;28;20288;-73
2023/06/14 10:19:37;;;;;;;4.20;3.63;;;21.50;92.80;;;;;;4950137;28;20287;-74
2023/06/14 10:22:22;;;;;;;5.23;3.37;;;21.60;93.00;;;;;;4952047;28;20236;-75
2023/06/14 10:24:50;;;;;;;7.23;4.40;;;21.60;92.80;;;;;;4946094;28;20225;-71
2023/06/14 10:27:23;;;;;;;4.37;3.93;;;21.50;92.90;;;;;;4931375;28;20258;-72
2023/06/14 10:29:57;;;;;;;4.13;3.70;;;21.50;93.50;;;;;;4947531;28;20209;-72
2023/06/14 10:32:24;;;;;;;7.50;3.70;;;21.60;93.10;;;;;;4946518;28;20238;-76
2023/06/14 10:34:55;;;;;;;6.03;4.20;;;21.60;93.10;;;;;;4948847;28;20292;-72
2023/06/14 10:37:21;;;;;;;4.23;3.83;;;21.60;92.50;;;;;;4948990;28;20212;-71
2023/06/14 10:39:46;;;;;;;4.23;3.50;;;21.80;92.30;;;;;;4947862;28;20202;-73
2023/06/14 10:42:14;;;;;;;10.63;3.70;;;21.90;92.10;;;;;;4945951;28;20198;-72
2023/06/14 10:44:51;;;;;;;4.13;3.77;;;22.00;92.40;;;;;;4947204;28;20694;-72
2023/06/14 10:47:25;;;;;;;6.97;3.47;;;21.80;92.30;;;;;;4949609;28;20269;-74
2023/06/14 10:49:57;;;;;;;4.40;3.90;;;22.00;92.40;;;;;;4945122;28;21049;-74
2023/06/14 10:52:31;;;;;;;6.43;3.80;;;22.00;92.20;;;;;;4947455;28;20951;-72
2023/06/14 10:55:11;;;;;;;6.43;3.57;;;22.10;91.80;;;;;;4947874;28;20569;-70
2023/06/14 10:57:38;;;;;;;6.67;4.03;;;22.10;91.70;;;;;;4948726;28;20688;-70
2023/06/14 11:00:12;;;;;;;3.97;3.37;;;22.20;91.50;;;;;;4949112;28;20204;-70
2023/06/14 11:02:51;;;;;;;5.87;3.90;;;22.30;91.70;;;;;;4949313;28;20233;-73
2023/06/14 11:05:26;;;;;;;7.17;4.70;;;22.40;90.90;;;;;;4947632;28;20285;-70
2023/06/14 11:08:07;;;;;;;7.20;4.27;;;22.30;90.60;;;;;;4927040;28;20231;-70
2023/06/14 11:10:39;;;;;;;7.40;3.57;;;22.40;90.90;;;;;;4945407;28;20223;-74
2023/06/14 11:13:09;;;;;;;5.97;4.23;;;22.60;90.00;;;;;;4948172;28;20255;-73
2023/06/14 11:15:39;;;;;;;5.90;4.70;;;22.50;90.30;;;;;;4949655;28;20582;-72
2023/06/14 11:18:06;;;;;;;3.90;3.47;;;22.50;90.70;;;;;;4950349;28;20210;-73
2023/06/14 11:20:34;;;;;;;4.68;3.63;;;22.70;89.60;;;;;;4946291;28;20194;-72
2023/06/14 11:23:00;;;;;;;5.63;3.93;;;22.90;87.80;;;;;;4948217;28;20300;-73
2023/06/14 11:25:27;;;;;;;3.97;3.67;;;23.00;86.40;;;;;;4927164;28;21292;-72
2023/06/14 11:27:53;;;;;;;5.63;3.40;;;23.00;87.50;;;;;;4946427;28;20229;-72
2023/06/14 11:30:19;;;;;;;7.43;4.17;;;23.10;87.20;;;;;;4949144;28;20289;-73
2023/06/14 11:32:50;;;;;;;5.57;3.13;;;23.20;86.50;;;;;;4951811;28;20710;-73
2023/06/14 11:35:16;;;;;;;6.75;3.47;;;23.40;87.00;;;;;;4944605;28;20220;-73
2023/06/14 11:37:42;;;;;;;5.95;3.63;;;23.50;85.40;;;;;;4947225;28;20296;-74
2023/06/14 11:40:09;;;;;;;4.38;3.95;;;23.60;84.70;;;;;;4952582;28;20268;-74
2023/06/14 11:42:36;;;;;;;5.80;3.65;;;23.70;84.30;;;;;;4947496;28;20218;-73
2023/06/14 11:45:03;;;;;;;5.43;4.22;;;23.90;81.20;;;;;;4949525;28;20198;-72
2023/06/14 11:47:33;;;;;;;7.68;3.90;;;24.10;81.70;;;;;;4958687;28;20197;-74
2023/06/14 11:49:59;;;;;;;8.25;4.15;;;24.10;77.70;;;;;;4958545;28;20197;-74
2023/06/14 11:52:25;;;;;;;7.95;3.90;;;23.90;80.30;;;;;;4961323;28;20688;-73
2023/06/14 11:54:51;;;;;;;4.88;3.45;;;24.20;77.10;;;;;;4953949;28;20202;-72
2023/06/14 11:57:18;;;;;;;6.35;3.83;;;24.00;79.00;;;;;;4951440;28;20206;-72
2023/06/14 11:59:45;;;;;;;6.03;3.45;;;24.20;78.10;;;;;;4951751;28;20206;-72
2023/06/14 12:02:14;;;;;;;7.47;3.65;;;24.20;78.70;;;;;;4955987;28;20594;-73
2023/06/14 12:04:43;;;;;;;4.22;3.63;;;24.60;78.20;;;;;;4954390;28;20663;-73
2023/06/14 12:07:15;;;;;;;4.38;3.10;;;24.70;75.60;;;;;;4949531;28;20200;-75
2023/06/14 12:10:01;;;;;;;4.65;3.88;;;24.50;75.50;;;;;;4951608;28;20264;-75
2023/06/14 12:12:26;;;;;;;4.40;3.53;;;24.30;72.70;;;;;;4923509;28;20633;-72
2023/06/14 12:14:53;;;;;;;4.60;4.10;;;24.40;73.70;;;;;;4947648;28;20260;-71
2023/06/14 12:17:19;;;;;;;5.60;3.75;;;24.50;72.00;;;;;;4952581;28;20199;-72
2023/06/14 12:19:46;;;;;;;5.18;3.47;;;24.60;70.90;;;;;;4952371;28;20322;-73
2023/06/14 12:22:16;;;;;;;5.47;3.88;;;24.80;70.20;;;;;;4952280;28;21003;-73
2023/06/14 12:24:45;;;;;;;5.28;3.88;;;25.10;69.40;;;;;;4935125;29;20229;-72
2023/06/14 12:27:15;;;;;;;6.63;4.10;;;25.30;69.00;;;;;;4950894;28;20334;-73
2023/06/14 12:29:44;;;;;;;5.03;3.47;;;25.30;68.50;;;;;;4951524;28;20215;-73
2023/06/14 12:32:10;;;;;;;7.80;3.50;;;25.20;68.30;;;;;;4951659;28;20234;-73
2023/06/14 12:34:36;;;;;;;6.20;3.40;;;25.40;66.80;;;;;;4949619;28;20682;-73
2023/06/14 12:37:03;;;;;;;3.45;3.22;;;25.00;66.80;;;;;;4952395;28;20234;-73
2023/06/14 12:39:31;;;;;;;4.93;3.88;;;25.20;66.50;;;;;;4954263;28;20190;-73
2023/06/14 12:41:57;;;;;;;3.63;2.83;;;25.40;64.80;;;;;;4950686;28;20203;-73
2023/06/14 12:44:23;;;;;;;5.20;3.40;;;25.30;64.20;;;;;;4952351;28;20220;-73
2023/06/14 12:46:51;;;;;;;3.95;3.20;;;25.50;62.50;;;;;;4949277;28;20691;-73